SIA915 RPLL-WSSS
Flight info
| Callsign | SIA915 |
|---|---|
| Flight time | N/A |
| Altitude | 38000 |
| Route | BUCAL2R BUCAL M646 TOKON M767 TOMAN KARTO2B |
| Aircraft | B77W/H-SDE1E2E3FGHIJ2J3J4J5M1RWXYZ/LB1D1 |
Departure
| Time | 2026-05-08 01:18 |
|---|---|
| Airport | Ninoy Aquino International Airport (RPLL) |
Arrival
| Time | N/A |
|---|---|
| Airport | Singapore Changi Airport (WSSS) |
| Time | Latitude | Longitude | Altitude | Speed | Heading |
|---|---|---|---|---|---|
| 2026-05-08 00:39 | 14.51750 | 121.01417 | 59 ft | 0 kts | 46° |
| 2026-05-08 01:07 | 14.51741 | 121.01407 | 59 ft | 2 kts | 46° |
| 2026-05-08 01:07 | 14.51731 | 121.01396 | 58 ft | 2 kts | 48° |
| 2026-05-08 01:08 | 14.51722 | 121.01384 | 58 ft | 2 kts | 63° |
| 2026-05-08 01:08 | 14.51717 | 121.01369 | 58 ft | 2 kts | 76° |
| 2026-05-08 01:08 | 14.51714 | 121.01354 | 58 ft | 2 kts | 88° |
| 2026-05-08 01:08 | 14.51715 | 121.01340 | 57 ft | 2 kts | 101° |
| 2026-05-08 01:09 | 14.51719 | 121.01324 | 57 ft | 2 kts | 113° |
| 2026-05-08 01:09 | 14.51726 | 121.01311 | 57 ft | 2 kts | 126° |
| 2026-05-08 01:09 | 14.51733 | 121.01303 | 57 ft | 0 kts | 134° |
| 2026-05-08 01:09 | 14.51735 | 121.01301 | 57 ft | 0 kts | 135° |
| 2026-05-08 01:11 | 14.51733 | 121.01302 | 57 ft | 1 kts | 135° |
| 2026-05-08 01:11 | 14.51711 | 121.01326 | 57 ft | 7 kts | 134° |
| 2026-05-08 01:11 | 14.51660 | 121.01380 | 58 ft | 13 kts | 134° |
| 2026-05-08 01:12 | 14.51584 | 121.01459 | 60 ft | 17 kts | 135° |
| 2026-05-08 01:12 | 14.51522 | 121.01524 | 61 ft | 19 kts | 135° |
| 2026-05-08 01:12 | 14.51392 | 121.01575 | 62 ft | 13 kts | 173° |
| 2026-05-08 01:12 | 14.51341 | 121.01605 | 63 ft | 12 kts | 136° |
| 2026-05-08 01:13 | 14.51256 | 121.01692 | 62 ft | 13 kts | 135° |
| 2026-05-08 01:13 | 14.51181 | 121.01770 | 61 ft | 16 kts | 134° |
| 2026-05-08 01:13 | 14.51122 | 121.01831 | 60 ft | 18 kts | 135° |
| 2026-05-08 01:13 | 14.51010 | 121.01903 | 59 ft | 13 kts | 205° |
| 2026-05-08 01:14 | 14.50948 | 121.01820 | 57 ft | 16 kts | 240° |
| 2026-05-08 01:14 | 14.50883 | 121.01704 | 58 ft | 20 kts | 240° |
| 2026-05-08 01:14 | 14.50802 | 121.01559 | 59 ft | 25 kts | 240° |
| 2026-05-08 01:14 | 14.50702 | 121.01380 | 55 ft | 28 kts | 240° |
| 2026-05-08 01:15 | 14.50607 | 121.01208 | 50 ft | 27 kts | 240° |
| 2026-05-08 01:15 | 14.50512 | 121.01036 | 46 ft | 26 kts | 240° |
| 2026-05-08 01:15 | 14.50421 | 121.00872 | 44 ft | 25 kts | 240° |
| 2026-05-08 01:15 | 14.50333 | 121.00715 | 45 ft | 25 kts | 240° |
| 2026-05-08 01:16 | 14.50245 | 121.00558 | 43 ft | 25 kts | 240° |
| 2026-05-08 01:16 | 14.50154 | 121.00394 | 41 ft | 26 kts | 240° |
| 2026-05-08 01:16 | 14.50094 | 121.00285 | 40 ft | 26 kts | 240° |
| 2026-05-08 01:16 | 14.49970 | 121.00060 | 36 ft | 26 kts | 240° |
| 2026-05-08 01:17 | 14.49851 | 120.99981 | 35 ft | 21 kts | 159° |
| 2026-05-08 01:17 | 14.49814 | 121.00077 | 37 ft | 14 kts | 65° |
| 2026-05-08 01:17 | 14.49860 | 121.00154 | 38 ft | 11 kts | 57° |
| 2026-05-08 01:17 | 14.49914 | 121.00246 | 38 ft | 26 kts | 60° |
| 2026-05-08 01:18 | 14.50038 | 121.00470 | 42 ft | 83 kts | 60° |
| 2026-05-08 01:18 | 14.50685 | 121.01636 | 134 ft | 184 kts | 61° |
| 2026-05-08 01:18 | 14.51298 | 121.02765 | 1175 ft | 183 kts | 62° |
| 2026-05-08 01:18 | 14.51911 | 121.03848 | 2051 ft | 184 kts | 61° |
| 2026-05-08 01:19 | 14.52563 | 121.05014 | 2727 ft | 196 kts | 62° |
| 2026-05-08 01:19 | 14.53249 | 121.06254 | 3430 ft | 208 kts | 62° |
| 2026-05-08 01:19 | 14.53997 | 121.07604 | 4115 ft | 225 kts | 62° |
| 2026-05-08 01:19 | 14.54787 | 121.09028 | 4830 ft | 240 kts | 62° |
| 2026-05-08 01:20 | 14.55637 | 121.10572 | 5576 ft | 256 kts | 64° |
| 2026-05-08 01:20 | 14.56132 | 121.12344 | 6401 ft | 265 kts | 87° |
| 2026-05-08 01:20 | 14.55880 | 121.14200 | 7324 ft | 271 kts | 109° |
| 2026-05-08 01:20 | 14.54881 | 121.15858 | 8242 ft | 279 kts | 129° |
| 2026-05-08 01:21 | 14.53529 | 121.17298 | 9166 ft | 285 kts | 133° |
| 2026-05-08 01:21 | 14.52100 | 121.18754 | 9775 ft | 291 kts | 133° |
| 2026-05-08 01:21 | 14.50654 | 121.20239 | 9916 ft | 293 kts | 133° |
| 2026-05-08 01:21 | 14.49692 | 121.21231 | 9911 ft | 292 kts | 132° |
| 2026-05-08 01:22 | 14.47649 | 121.23018 | 9894 ft | 293 kts | 151° |
| 2026-05-08 01:22 | 14.45655 | 121.23557 | 9888 ft | 299 kts | 177° |
| 2026-05-08 01:22 | 14.43602 | 121.23169 | 9899 ft | 304 kts | 202° |
| 2026-05-08 01:22 | 14.41875 | 121.21923 | 9906 ft | 305 kts | 224° |
| 2026-05-08 01:23 | 14.40432 | 121.20323 | 9904 ft | 307 kts | 227° |
| 2026-05-08 01:23 | 14.39012 | 121.18664 | 9912 ft | 307 kts | 227° |
| 2026-05-08 01:23 | 14.37589 | 121.17014 | 9913 ft | 307 kts | 227° |
| 2026-05-08 01:23 | 14.36171 | 121.15384 | 9913 ft | 307 kts | 227° |
| 2026-05-08 01:24 | 14.34736 | 121.13741 | 9916 ft | 307 kts | 227° |
| 2026-05-08 01:24 | 14.33291 | 121.12087 | 9910 ft | 308 kts | 227° |
| 2026-05-08 01:24 | 14.31860 | 121.10452 | 9915 ft | 308 kts | 227° |
| 2026-05-08 01:24 | 14.30429 | 121.08816 | 9930 ft | 307 kts | 227° |
| 2026-05-08 01:25 | 14.28997 | 121.07179 | 9931 ft | 307 kts | 227° |
| 2026-05-08 01:25 | 14.27422 | 121.05690 | 9930 ft | 311 kts | 215° |
| 2026-05-08 01:25 | 14.25594 | 121.04370 | 10529 ft | 329 kts | 213° |
| 2026-05-08 01:25 | 14.23672 | 121.03024 | 11186 ft | 344 kts | 213° |
| 2026-05-08 01:26 | 14.21659 | 121.01610 | 11834 ft | 360 kts | 213° |
| 2026-05-08 01:26 | 14.19529 | 121.00110 | 12497 ft | 375 kts | 214° |
| 2026-05-08 01:26 | 14.17360 | 120.98581 | 13082 ft | 391 kts | 214° |
| 2026-05-08 01:26 | 14.15035 | 120.96941 | 13312 ft | 410 kts | 214° |
| 2026-05-08 01:27 | 14.12655 | 120.95264 | 13326 ft | 413 kts | 214° |
| 2026-05-08 01:27 | 14.10292 | 120.93599 | 13314 ft | 413 kts | 214° |
| 2026-05-08 01:27 | 14.07919 | 120.91926 | 13326 ft | 413 kts | 214° |
| 2026-05-08 01:27 | 14.05532 | 120.90244 | 13330 ft | 413 kts | 214° |
| 2026-05-08 01:28 | 14.03153 | 120.88570 | 13331 ft | 421 kts | 214° |
| 2026-05-08 01:28 | 14.00713 | 120.86852 | 14108 ft | 429 kts | 214° |
| 2026-05-08 01:28 | 13.98256 | 120.85123 | 15312 ft | 424 kts | 214° |
| 2026-05-08 01:28 | 13.95842 | 120.83424 | 16243 ft | 426 kts | 214° |
| 2026-05-08 01:29 | 13.93378 | 120.81692 | 16929 ft | 435 kts | 214° |
| 2026-05-08 01:29 | 13.90835 | 120.79905 | 17659 ft | 442 kts | 214° |
| 2026-05-08 01:29 | 13.88312 | 120.78131 | 18530 ft | 445 kts | 214° |
| 2026-05-08 01:29 | 13.86617 | 120.76939 | 19088 ft | 447 kts | 214° |
| 2026-05-08 01:30 | 13.83150 | 120.74499 | 20143 ft | 453 kts | 214° |
| 2026-05-08 01:30 | 13.80566 | 120.72681 | 20883 ft | 457 kts | 214° |
| 2026-05-08 01:30 | 13.77921 | 120.70821 | 21604 ft | 462 kts | 214° |
| 2026-05-08 01:30 | 13.75278 | 120.68962 | 22331 ft | 466 kts | 214° |
| 2026-05-08 01:31 | 13.72572 | 120.67060 | 23045 ft | 470 kts | 214° |
| 2026-05-08 01:31 | 13.69861 | 120.65155 | 23713 ft | 475 kts | 214° |
| 2026-05-08 01:31 | 13.67132 | 120.63238 | 24334 ft | 481 kts | 214° |
| 2026-05-08 01:31 | 13.64331 | 120.61272 | 24986 ft | 485 kts | 214° |
| 2026-05-08 01:32 | 13.61555 | 120.59323 | 25605 ft | 490 kts | 213° |
| 2026-05-08 01:32 | 13.58563 | 120.57545 | 26208 ft | 495 kts | 206° |
| 2026-05-08 01:32 | 13.55448 | 120.56016 | 26832 ft | 499 kts | 205° |
| 2026-05-08 01:32 | 13.52282 | 120.54494 | 27465 ft | 504 kts | 205° |
| 2026-05-08 01:33 | 13.50194 | 120.53492 | 27876 ft | 507 kts | 205° |
| 2026-05-08 01:33 | 13.45861 | 120.51411 | 28655 ft | 513 kts | 205° |
| 2026-05-08 01:33 | 13.43727 | 120.50385 | 29054 ft | 516 kts | 205° |
| 2026-05-08 01:33 | 13.39401 | 120.48306 | 30039 ft | 516 kts | 205° |
| 2026-05-08 01:34 | 13.36161 | 120.46750 | 30994 ft | 510 kts | 205° |
| 2026-05-08 01:34 | 13.34018 | 120.45720 | 31635 ft | 506 kts | 205° |
| 2026-05-08 01:34 | 13.29806 | 120.43697 | 32748 ft | 501 kts | 206° |
| 2026-05-08 01:34 | 13.26667 | 120.42189 | 33559 ft | 498 kts | 206° |
| 2026-05-08 01:35 | 13.23547 | 120.40691 | 34363 ft | 496 kts | 206° |
| 2026-05-08 01:35 | 13.20392 | 120.39176 | 35161 ft | 493 kts | 206° |
| 2026-05-08 01:35 | 13.17315 | 120.37699 | 35929 ft | 490 kts | 206° |
| 2026-05-08 01:35 | 13.14244 | 120.36226 | 36603 ft | 488 kts | 206° |
| 2026-05-08 01:36 | 13.11162 | 120.34747 | 36890 ft | 491 kts | 206° |
| 2026-05-08 01:36 | 13.04941 | 120.31764 | 36893 ft | 487 kts | 206° |
| 2026-05-08 01:37 | 12.99808 | 120.29303 | 36897 ft | 487 kts | 206° |
| 2026-05-08 01:37 | 12.93639 | 120.26347 | 36894 ft | 487 kts | 206° |
| 2026-05-08 01:38 | 12.86414 | 120.22889 | 36886 ft | 487 kts | 206° |
| 2026-05-08 01:38 | 12.81253 | 120.20418 | 36889 ft | 488 kts | 206° |
| 2026-05-08 01:39 | 12.74120 | 120.17007 | 36876 ft | 486 kts | 206° |
| 2026-05-08 01:39 | 12.67956 | 120.14061 | 36875 ft | 486 kts | 206° |
| 2026-05-08 01:40 | 12.62837 | 120.11615 | 36868 ft | 486 kts | 206° |
| 2026-05-08 01:40 | 12.55675 | 120.08195 | 36869 ft | 486 kts | 206° |
| 2026-05-08 01:41 | 12.49506 | 120.05251 | 36867 ft | 485 kts | 206° |
| 2026-05-08 01:41 | 12.43404 | 120.02341 | 36870 ft | 483 kts | 206° |
| 2026-05-08 01:42 | 12.37253 | 119.99409 | 36872 ft | 485 kts | 206° |
| 2026-05-08 01:42 | 12.31120 | 119.96486 | 36874 ft | 485 kts | 206° |
| 2026-05-08 01:43 | 12.24992 | 119.93568 | 36874 ft | 483 kts | 206° |
| 2026-05-08 01:43 | 12.18885 | 119.90661 | 36873 ft | 482 kts | 206° |
| 2026-05-08 01:44 | 12.12806 | 119.87769 | 36870 ft | 482 kts | 206° |
| 2026-05-08 01:44 | 12.07716 | 119.85349 | 36870 ft | 481 kts | 206° |
| 2026-05-08 01:45 | 12.00581 | 119.81957 | 36867 ft | 481 kts | 206° |
| 2026-05-08 01:45 | 11.94505 | 119.79071 | 36868 ft | 481 kts | 206° |
| 2026-05-08 01:46 | 11.88452 | 119.76197 | 36872 ft | 481 kts | 206° |
| 2026-05-08 01:46 | 11.82318 | 119.73286 | 36874 ft | 481 kts | 206° |
| 2026-05-08 01:47 | 11.76259 | 119.70412 | 36878 ft | 481 kts | 206° |
| 2026-05-08 01:47 | 11.70525 | 119.66891 | 36883 ft | 480 kts | 221° |
| 2026-05-08 01:48 | 11.66726 | 119.62799 | 36884 ft | 477 kts | 234° |
| 2026-05-08 01:48 | 11.64094 | 119.59147 | 36884 ft | 477 kts | 234° |
| 2026-05-08 01:48 | 11.60186 | 119.53671 | 36884 ft | 477 kts | 234° |
| 2026-05-08 01:49 | 11.56260 | 119.48176 | 36886 ft | 476 kts | 234° |
| 2026-05-08 01:49 | 11.52361 | 119.42723 | 36888 ft | 477 kts | 234° |
| 2026-05-08 01:50 | 11.48425 | 119.37224 | 36887 ft | 477 kts | 234° |
| 2026-05-08 01:50 | 11.45164 | 119.32670 | 36889 ft | 478 kts | 234° |
| 2026-05-08 01:51 | 11.41211 | 119.27152 | 36883 ft | 477 kts | 234° |
| 2026-05-08 01:51 | 11.36633 | 119.20768 | 36877 ft | 476 kts | 234° |
| 2026-05-08 01:52 | 11.33368 | 119.16217 | 36878 ft | 478 kts | 234° |
| 2026-05-08 01:52 | 11.28793 | 119.09843 | 36875 ft | 477 kts | 234° |
| 2026-05-08 01:53 | 11.24886 | 119.04403 | 36873 ft | 478 kts | 234° |
| 2026-05-08 01:53 | 11.20955 | 118.98933 | 36873 ft | 477 kts | 234° |
| 2026-05-08 01:54 | 11.17045 | 118.93493 | 36873 ft | 477 kts | 234° |
| 2026-05-08 01:54 | 11.13114 | 118.88029 | 36871 ft | 476 kts | 234° |
| 2026-05-08 01:55 | 11.09188 | 118.82574 | 36872 ft | 479 kts | 234° |
| 2026-05-08 01:55 | 11.05238 | 118.77088 | 36867 ft | 478 kts | 234° |
| 2026-05-08 01:56 | 11.01295 | 118.71616 | 36868 ft | 479 kts | 234° |
| 2026-05-08 01:56 | 10.98012 | 118.67062 | 36867 ft | 478 kts | 234° |
| 2026-05-08 01:57 | 10.93397 | 118.60664 | 36867 ft | 479 kts | 234° |
| 2026-05-08 01:57 | 10.89475 | 118.55228 | 36867 ft | 478 kts | 234° |
| 2026-05-08 01:58 | 10.85516 | 118.49744 | 36866 ft | 479 kts | 234° |
| 2026-05-08 01:58 | 10.81553 | 118.44258 | 36867 ft | 480 kts | 234° |
| 2026-05-08 01:59 | 10.78257 | 118.39698 | 36867 ft | 479 kts | 234° |
| 2026-05-08 01:59 | 10.73653 | 118.33330 | 36869 ft | 480 kts | 234° |
| 2026-05-08 02:00 | 10.69693 | 118.27856 | 36869 ft | 479 kts | 234° |
| 2026-05-08 02:00 | 10.65762 | 118.22425 | 36871 ft | 481 kts | 234° |
| 2026-05-08 02:01 | 10.62438 | 118.17835 | 36871 ft | 482 kts | 234° |
| 2026-05-08 02:01 | 10.57806 | 118.11441 | 36872 ft | 482 kts | 234° |
| 2026-05-08 02:02 | 10.54495 | 118.06874 | 36876 ft | 482 kts | 234° |
| 2026-05-08 02:02 | 10.50504 | 118.01370 | 36879 ft | 482 kts | 234° |
| 2026-05-08 02:03 | 10.46506 | 117.95861 | 36877 ft | 481 kts | 234° |
| 2026-05-08 02:03 | 10.42535 | 117.90390 | 36878 ft | 481 kts | 234° |
| 2026-05-08 02:04 | 10.37879 | 117.83980 | 36876 ft | 481 kts | 234° |
| 2026-05-08 02:04 | 10.33920 | 117.78518 | 36881 ft | 481 kts | 234° |
| 2026-05-08 02:05 | 10.29962 | 117.72985 | 36887 ft | 483 kts | 234° |
| 2026-05-08 02:05 | 10.26674 | 117.68391 | 36886 ft | 481 kts | 234° |
| 2026-05-08 02:06 | 10.22728 | 117.62882 | 36882 ft | 481 kts | 234° |
| 2026-05-08 02:06 | 10.18795 | 117.57395 | 36879 ft | 482 kts | 234° |
| 2026-05-08 02:07 | 10.14184 | 117.50967 | 36871 ft | 481 kts | 234° |
| 2026-05-08 02:07 | 10.10912 | 117.46408 | 36869 ft | 481 kts | 234° |
| 2026-05-08 02:08 | 10.06954 | 117.40896 | 36868 ft | 483 kts | 234° |
| 2026-05-08 02:08 | 10.03002 | 117.35394 | 36867 ft | 482 kts | 234° |
| 2026-05-08 02:09 | 9.99059 | 117.29908 | 36870 ft | 483 kts | 234° |
| 2026-05-08 02:09 | 9.94438 | 117.23482 | 36865 ft | 481 kts | 234° |
| 2026-05-08 02:10 | 9.90487 | 117.17990 | 36868 ft | 482 kts | 234° |
| 2026-05-08 02:10 | 9.86497 | 117.12447 | 36868 ft | 483 kts | 234° |
| 2026-05-08 02:11 | 9.83180 | 117.07841 | 36864 ft | 482 kts | 234° |
| 2026-05-08 02:11 | 9.78588 | 117.01466 | 36866 ft | 482 kts | 234° |
| 2026-05-08 02:12 | 9.74620 | 116.95962 | 36867 ft | 483 kts | 234° |
| 2026-05-08 02:12 | 9.71306 | 116.91366 | 36865 ft | 482 kts | 234° |
| 2026-05-08 02:13 | 9.67347 | 116.85877 | 36865 ft | 481 kts | 234° |
| 2026-05-08 02:13 | 9.63401 | 116.80411 | 36864 ft | 482 kts | 234° |
| 2026-05-08 02:14 | 9.58771 | 116.73999 | 36860 ft | 483 kts | 234° |
| 2026-05-08 02:14 | 9.55486 | 116.69451 | 36861 ft | 482 kts | 234° |
| 2026-05-08 02:15 | 9.50863 | 116.63055 | 36859 ft | 483 kts | 234° |
| 2026-05-08 02:15 | 9.47546 | 116.58467 | 36861 ft | 482 kts | 234° |
| 2026-05-08 02:16 | 9.43574 | 116.52976 | 36860 ft | 484 kts | 234° |
| 2026-05-08 02:16 | 9.39595 | 116.47478 | 36861 ft | 483 kts | 234° |
| 2026-05-08 02:17 | 9.34979 | 116.41102 | 36860 ft | 484 kts | 234° |
| 2026-05-08 02:17 | 9.30985 | 116.35589 | 36863 ft | 483 kts | 234° |
| 2026-05-08 02:18 | 9.26997 | 116.30086 | 36864 ft | 483 kts | 234° |
| 2026-05-08 02:18 | 9.23665 | 116.25521 | 36866 ft | 483 kts | 234° |
| 2026-05-08 02:19 | 9.18999 | 116.19139 | 36868 ft | 483 kts | 234° |